Latest Weather Observations for Rosslyn Bay Harbour

IDQ60801

Issued at 11:02 pm EST Friday 27 March 2015 (issued every 30 minutes, with the page automatically refreshed every 10 minutes)

About weather observations | Map of weather stations | Latest weather observations for QLD | Other Formats
Station Details ID: 033208 Name: ROSSLYN BAY NTC AWS Lat: -23.16 Lon: 150.79 Height: 0.0 m
Data from the previous 72 hours. | See also: Recent months for locations in Queensland
Date/Time
EST
Temp
°C
App
Temp
°C
Dew
Point
Rel
Hum
%
Delta-T
°C
Wind Press
QNH
hPa
Press
MSL
hPa
Rain
since 9 am
mm
Dir
 
Spd
km/h
Gust
km/h
Spd
kts
Gust
kts
27/11:00pm 27.1 - - - - SSW 6 19 3 10 1017.2 1017.2 -
27/10:30pm 27.2 - - - - WSW 4 13 2 7 1017.2 1017.2 -
27/10:00pm 27.1 - - - - ESE 4 11 2 6 1017.2 1017.2 -
27/09:30pm 27.3 - - - - E 4 13 2 7 1017.2 1017.2 -
27/09:00pm 27.2 - - - - E 4 13 2 7 1016.9 1016.9 -
27/08:30pm 27.5 - - - - ENE 9 20 5 11 1016.6 1016.6 -
27/08:00pm 27.4 - - - - E 6 20 3 11 1016.4 1016.4 -
27/07:30pm 27.8 - - - - ENE 6 17 3 9 1016.2 1016.2 -
27/07:00pm 28.0 - - - - ENE 9 19 5 10 1015.8 1015.8 -
27/06:30pm 27.9 - - - - ENE 9 17 5 9 1015.4 1015.4 -
27/06:00pm 28.0 - - - - ENE 9 20 5 11 1015.1 1015.1 -
27/05:30pm 28.4 - - - - ENE 7 15 4 8 1014.8 1014.8 -
27/05:00pm 28.7 - - - - ENE 7 19 4 10 1014.6 1014.6 -
27/04:30pm 28.5 - - - - ENE 7 15 4 8 1014.5 1014.5 -
27/04:00pm 28.7 - - - - E 7 19 4 10 1014.5 1014.5 -
27/03:30pm 28.8 - - - - ENE 6 17 3 9 1014.4 1014.4 -
27/03:00pm 29.0 - - - - ESE 4 13 2 7 1014.7 1014.7 -
27/02:30pm 29.0 - - - - E 6 19 3 10 1014.8 1014.8 -
27/02:00pm 29.6 - - - - E 6 17 3 9 1015.1 1015.1 -
27/01:30pm 28.7 - - - - SW 6 13 3 7 1015.5 1015.5 -
27/01:00pm 29.5 - - - - WSW 4 9 2 5 1016.0 1016.0 -
27/12:30pm 29.9 - - - - SSW 2 7 1 4 1016.5 1016.5 -
27/12:00pm 29.3 - - - - SSW 4 15 2 8 1017.1 1017.1 -
27/11:30am 27.9 - - - - ENE 7 11 4 6 1017.7 1017.7 -
27/11:00am 28.2 - - - - ENE 9 13 5 7 1018.2 1018.2 -
27/10:30am 29.2 - - - - ENE 7 19 4 10 1018.5 1018.5 -
27/10:00am 28.5 - - - - ENE 9 17 5 9 1018.7 1018.7 -
27/09:30am 28.5 - - - - ENE 7 20 4 11 1018.7 1018.7 -
27/09:00am 28.2 - - - - SSW 6 17 3 9 1018.5 1018.5 -
27/08:30am 27.9 - - - - S 2 6 1 3 1018.5 1018.5 -
27/08:00am 28.1 - - - - SSW 4 9 2 5 1018.3 1018.3 -
27/07:30am 27.5 - - - - ENE 4 13 2 7 1018.2 1018.2 -
27/07:00am 27.5 - - - - SE 4 11 2 6 1017.9 1017.9 -
27/06:30am 27.0 - - - - WSW 4 9 2 5 1017.7 1017.7 -
27/06:00am 27.0 - - - - ESE 4 9 2 5 1017.2 1017.2 -
27/05:30am 27.1 - - - - ENE 4 11 2 6 1016.9 1016.9 -
27/05:00am 27.3 - - - - ENE 4 13 2 7 1016.6 1016.6 -
27/04:30am 27.1 - - - - ENE 7 15 4 8 1016.4 1016.4 -
27/04:00am 27.0 - - - - SE 4 9 2 5 1016.1 1016.1 -
27/03:30am 27.1 - - - - ENE 4 13 2 7 1016.0 1016.0 -
27/03:00am 27.1 - - - - E 6 15 3 8 1016.1 1016.1 -
27/02:30am 27.1 - - - - E 6 15 3 8 1016.1 1016.1 -
27/02:00am 27.1 - - - - E 6 17 3 9 1016.3 1016.3 -
27/01:30am 27.3 - - - - ENE 7 19 4 10 1016.5 1016.5 -
27/01:00am 27.2 - - - - E 6 13 3 7 1016.8 1016.8 -
27/12:30am 27.1 - - - - SW 4 9 2 5 1017.1 1017.1 -
27/12:00am 27.2 - - - - ENE 7 17 4 9 1017.3 1017.3 -
 
Date/Time
EST
Temp
°C
App
Temp
°C
Dew
Point
Rel
Hum
%
Delta-T
°C
Wind Press
QNH
hPa
Press
MSL
hPa
Rain
since 9 am
mm
Dir
 
Spd
km/h
Gust
km/h
Spd
kts
Gust
kts
26/11:30pm 27.3 - - - - E 4 13 2 7 1017.4 1017.4 -
26/11:00pm 27.3 - - - - E 6 17 3 9 1017.6 1017.6 -
26/10:30pm 27.3 - - - - ESE 4 15 2 8 1017.6 1017.6 -
26/10:00pm 27.6 - - - - SW 6 11 3 6 1017.9 1017.9 -
26/09:30pm 27.5 - - - - ESE 6 17 3 9 1017.7 1017.7 -
26/09:00pm 27.7 - - - - ENE 11 20 6 11 1017.4 1017.4 -
26/08:30pm 27.7 - - - - ENE 9 22 5 12 1017.1 1017.1 -
26/08:00pm 27.7 - - - - E 6 20 3 11 1016.8 1016.8 -
26/07:30pm 27.6 - - - - S 6 15 3 8 1016.4 1016.4 -
26/07:00pm 27.7 - - - - ESE 6 20 3 11 1016.1 1016.1 -
26/06:30pm 27.6 - - - - ESE 6 17 3 9 1015.9 1015.9 -
26/06:00pm 27.8 - - - - E 4 15 2 8 1015.8 1015.8 -
26/05:30pm 28.3 - - - - NE 6 13 3 7 1015.4 1015.4 -
26/05:00pm 28.5 - - - - E 4 13 2 7 1015.1 1015.1 -
26/04:30pm 28.9 - - - - NE 4 13 2 7 1014.9 1014.9 -
26/04:00pm 28.5 - - - - W 6 13 3 7 1014.9 1014.9 -
26/03:30pm 28.5 - - - - WNW 4 11 2 6 1014.9 1014.9 -
26/03:00pm 28.3 - - - - E 6 13 3 7 1015.0 1015.0 -
26/02:30pm 27.6 - - - - ENE 11 17 6 9 1015.2 1015.2 -
26/02:00pm 27.5 - - - - ENE 9 13 5 7 1015.6 1015.6 -
26/01:30pm 28.8 - - - - E 4 11 2 6 1015.8 1015.8 -
26/01:00pm 27.3 - - - - ENE 11 17 6 9 1016.2 1016.2 -
26/12:30pm 27.4 - - - - ENE 9 13 5 7 1016.8 1016.8 -
26/12:00pm 27.3 - - - - ENE 11 15 6 8 1017.1 1017.1 -
26/11:30am 27.3 - - - - ENE 11 15 6 8 1017.6 1017.6 -
26/11:00am 27.3 - - - - ENE 11 15 6 8 1017.9 1017.9 -
26/10:30am 27.4 - - - - ENE 13 17 7 9 1018.1 1018.1 -
26/10:00am 28.2 - - - - ENE 13 19 7 10 1018.1 1018.1 -
26/09:30am 27.4 - - - - ENE 13 17 7 9 1018.3 1018.3 -
26/09:00am 27.1 - - - - NE 11 17 6 9 1018.2 1018.2 -
26/08:30am 27.5 - - - - ENE 11 19 6 10 1017.7 1017.7 -
26/08:00am 27.0 - - - - NE 11 13 6 7 1017.5 1017.5 -
26/07:30am 26.8 - - - - N 4 6 2 3 1017.2 1017.2 -
26/07:00am 27.1 - - - - NE 11 17 6 9 1016.8 1016.8 -
26/06:30am 26.9 - - - - NE 15 19 8 10 1016.4 1016.4 -
26/06:00am 26.9 - - - - ENE 9 17 5 9 1016.1 1016.1 -
26/05:30am 25.1 - - - - S 4 6 2 3 1015.8 1015.8 -
26/05:00am 25.1 - - - - S 4 6 2 3 1015.5 1015.5 -
26/04:30am 25.5 - - - - S 2 4 1 2 1015.2 1015.2 -
26/04:00am 25.8 - - - - CALM 0 4 0 2 1015.0 1015.0 -
26/03:30am 25.7 - - - - CALM 0 2 0 1 1014.9 1014.9 -
26/03:00am 25.5 - - - - S 4 6 2 3 1014.9 1014.9 -
26/02:30am 25.9 - - - - SSW 2 4 1 2 1015.0 1015.0 -
26/02:00am 26.4 - - - - W 4 7 2 4 1015.2 1015.2 -
26/01:30am 26.5 - - - - NNW 7 9 4 5 1015.3 1015.3 -
26/01:00am 26.7 - - - - N 9 13 5 7 1015.2 1015.2 -
26/12:30am 27.4 - - - - NNE 17 22 9 12 1015.3 1015.3 -
26/12:00am 27.6 - - - - NNE 15 22 8 12 1015.2 1015.2 -
 
Date/Time
EST
Temp
°C
App
Temp
°C
Dew
Point
Rel
Hum
%
Delta-T
°C
Wind Press
QNH
hPa
Press
MSL
hPa
Rain
since 9 am
mm
Dir
 
Spd
km/h
Gust
km/h
Spd
kts
Gust
kts
25/11:30pm 27.6 - - - - NNE 15 22 8 12 1015.5 1015.5 -
25/11:00pm 27.7 - - - - NE 15 22 8 12 1015.6 1015.6 -
25/10:30pm 27.6 - - - - NNE 15 20 8 11 1015.8 1015.8 -
25/10:00pm 27.7 - - - - NNE 15 20 8 11 1015.8 1015.8 -
25/09:30pm 27.7 - - - - NNE 15 20 8 11 1015.8 1015.8 -
25/09:00pm 27.8 - - - - NNE 15 22 8 12 1015.9 1015.9 -
25/08:30pm 27.9 - - - - NNE 17 22 9 12 1015.6 1015.6 -
25/08:00pm 27.9 - - - - NNE 17 24 9 13 1015.2 1015.2 -
25/07:30pm 27.9 - - - - NNE 17 24 9 13 1014.9 1014.9 -
25/07:00pm 27.9 - - - - NNE 17 24 9 13 1014.6 1014.6 -
25/06:30pm 27.9 - - - - NNE 15 26 8 14 1014.2 1014.2 -
25/06:00pm 27.9 - - - - NNE 17 24 9 13 1014.1 1014.1 -
25/05:30pm 28.0 - - - - NNE 17 24 9 13 1013.8 1013.8 -
25/05:00pm 28.0 - - - - NE 17 26 9 14 1013.5 1013.5 -
25/04:30pm 28.1 - - - - NE 17 24 9 13 1013.5 1013.5 -
25/04:00pm 28.2 - - - - NNE 15 24 8 13 1013.5 1013.5 -
25/03:30pm 28.3 - - - - NNE 15 22 8 12 1013.5 1013.5 -
25/03:00pm 28.2 - - - - ENE 17 22 9 12 1013.6 1013.6 -
25/02:30pm 28.8 - - - - ENE 9 22 5 12 1013.7 1013.7 -
25/02:00pm 28.7 - - - - ENE 15 22 8 12 1014.0 1014.0 -
25/01:30pm 28.5 - - - - ENE 13 24 7 13 1014.2 1014.2 -
25/01:00pm 27.8 - - - - NE 17 20 9 11 1014.5 1014.5 -
25/12:30pm 27.8 - - - - NE 13 19 7 10 1014.8 1014.8 -
25/12:00pm 27.8 - - - - NE 11 15 6 8 1015.2 1015.2 -
25/11:30am 27.5 - - - - NE 11 19 6 10 1015.6 1015.6 -
25/11:00am 27.5 - - - - NE 11 17 6 9 1016.1 1016.1 -
25/10:30am 27.8 - - - - NE 7 11 4 6 1016.5 1016.5 -
25/10:00am 27.8 - - - - NNE 7 11 4 6 1016.4 1016.4 -
25/09:30am 27.7 - - - - NNE 6 9 3 5 1016.4 1016.4 -
25/09:00am 27.3 - - - - N 6 9 3 5 1016.5 1016.5 -
25/08:30am 27.1 - - - - N 6 7 3 4 1016.3 1016.3 -
25/08:00am 26.8 - - - - N 4 7 2 4 1015.9 1015.9 -
25/07:30am 25.8 - - - - WNW 2 4 1 2 1015.4 1015.4 -
25/07:00am 25.4 - - - - WNW 4 6 2 3 1015.1 1015.1 -
25/06:30am 25.2 - - - - WSW 2 4 1 2 1014.8 1014.8 -
25/06:00am 25.0 - - - - WSW 2 6 1 3 1014.5 1014.5 -
25/05:30am 25.0 - - - - WSW 4 6 2 3 1014.2 1014.2 -
25/05:00am 25.9 - - - - NNW 9 13 5 7 1013.9 1013.9 -
25/04:30am 25.8 - - - - NNW 7 13 4 7 1013.4 1013.4 -
25/04:00am 25.3 - - - - W 2 2 1 1 1013.3 1013.3 -
25/03:30am 25.3 - - - - WSW 2 2 1 1 1013.3 1013.3 -
25/03:00am 25.5 - - - - WNW 4 6 2 3 1013.3 1013.3 -
25/02:30am 25.5 - - - - W 6 11 3 6 1013.5 1013.5 -
25/02:00am 26.0 - - - - NNW 9 13 5 7 1013.4 1013.4 -
25/01:30am 26.2 - - - - N 9 13 5 7 1013.5 1013.5 -
25/01:00am 26.3 - - - - N 11 15 6 8 1013.8 1013.8 -
25/12:30am 26.2 - - - - N 9 13 5 7 1014.1 1014.1 -
25/12:00am 26.2 - - - - NNW 9 13 5 7 1014.5 1014.5 -
 
Date/Time
EST
Temp
°C
App
Temp
°C
Dew
Point
Rel
Hum
%
Delta-T
°C
Wind Press
QNH
hPa
Press
MSL
hPa
Rain
since 9 am
mm
Dir
 
Spd
km/h
Gust
km/h
Spd
kts
Gust
kts
24/11:30pm 26.5 - - - - N 11 19 6 10 1014.6 1014.6 -

Other Formats:

Comma delimited format used in spreadsheet applications
http://www.bom.gov.au/fwo/IDQ60801/IDQ60801.95298.axf

JavaScript Object Notation format (JSON) in row-major order
http://www.bom.gov.au/fwo/IDQ60801/IDQ60801.95298.json